createdAt,value
2023-03-21T00:01:56.483Z,101106.66
2023-03-21T00:04:33.145Z,101109.44
2023-03-21T00:07:07.695Z,101117.88
2023-03-21T00:09:37.077Z,101111.00
2023-03-21T00:12:09.997Z,101111.00
2023-03-21T00:14:40.553Z,101106.78
2023-03-21T00:17:12.991Z,101108.31
2023-03-21T00:19:42.425Z,101109.03
2023-03-21T00:22:11.952Z,101110.81
2023-03-21T00:24:41.646Z,101112.00
2023-03-21T00:27:38.328Z,101107.63
2023-03-21T00:30:00.585Z,101109.44
2023-03-21T00:32:35.602Z,101114.56
2023-03-21T00:35:45.270Z,101109.63
2023-03-21T00:38:01.174Z,101112.97
2023-03-21T00:40:35.191Z,101105.19
2023-03-21T00:43:07.156Z,101111.09
2023-03-21T00:45:37.395Z,101105.50
2023-03-21T00:48:10.062Z,101105.50
2023-03-21T00:50:39.862Z,101106.28
2023-03-21T00:53:09.676Z,101102.16
2023-03-21T00:55:39.112Z,101099.59
2023-03-21T00:58:08.715Z,101099.69
2023-03-21T01:00:39.261Z,101098.81
2023-03-21T01:03:23.624Z,101099.78
2023-03-21T01:06:07.050Z,101103.34
2023-03-21T01:08:51.125Z,101102.16
2023-03-21T01:11:23.914Z,101105.50
2023-03-21T01:14:07.153Z,101096.25
2023-03-21T01:16:37.220Z,101100.69
2023-03-21T01:19:22.207Z,101106.69
2023-03-21T01:21:54.287Z,101099.69
2023-03-21T01:24:23.699Z,101090.66
2023-03-21T01:26:53.122Z,101095.66
2023-03-21T01:29:22.716Z,101093.31
2023-03-21T01:31:52.207Z,101090.75
2023-03-21T01:34:24.264Z,101089.06
2023-03-21T01:36:53.701Z,101090.94
2023-03-21T01:39:23.258Z,101088.38
2023-03-21T01:41:52.903Z,101088.38
2023-03-21T01:44:22.471Z,101088.06
2023-03-21T01:47:07.679Z,101100.22
2023-03-21T01:49:46.297Z,101088.38
2023-03-21T01:52:29.844Z,101089.56
2023-03-21T01:55:04.617Z,101090.19
2023-03-21T01:57:43.797Z,101088.59
2023-03-21T02:00:15.750Z,101086.03
2023-03-21T02:02:52.633Z,101085.44
2023-03-21T02:05:29.146Z,101086.81
2023-03-21T02:07:58.562Z,101081.19
2023-03-21T02:10:28.498Z,101077.75
2023-03-21T02:13:09.648Z,101083.00
2023-03-21T02:15:39.972Z,101072.63
2023-03-21T02:18:14.540Z,101072.75
2023-03-21T02:21:04.230Z,101075.97
2023-03-21T02:23:57.204Z,101071.88
2023-03-21T02:26:55.058Z,101037.00
2023-03-21T02:30:14.871Z,101043.09
2023-03-21T02:33:03.156Z,101052.25
2023-03-21T02:35:54.200Z,101050.72
2023-03-21T02:38:30.965Z,101050.47
2023-03-21T02:41:13.175Z,101051.59
2023-03-21T02:43:50.830Z,101045.59
2023-03-21T02:46:24.374Z,101053.28
2023-03-21T02:48:59.175Z,101042.22
2023-03-21T02:51:29.475Z,101046.34
2023-03-21T02:54:26.418Z,101048.84
2023-03-21T02:56:55.310Z,101038.88
2023-03-21T02:59:26.235Z,101041.34
2023-03-21T03:01:56.353Z,101041.34
2023-03-21T03:04:27.686Z,101044.00
2023-03-21T03:07:12.882Z,101044.88
2023-03-21T03:10:01.668Z,101029.31
2023-03-21T03:12:40.674Z,101036.22
2023-03-21T03:15:17.916Z,101039.97
2023-03-21T03:17:53.695Z,101033.66
2023-03-21T03:20:28.422Z,101031.38
2023-03-21T03:23:03.475Z,101029.50
2023-03-21T03:25:43.239Z,101017.69
2023-03-21T03:28:14.555Z,101019.25
2023-03-21T03:30:54.313Z,101009.22
2023-03-21T03:33:34.798Z,101014.34
2023-03-21T03:36:06.745Z,101010.41
2023-03-21T03:38:37.619Z,101004.38
2023-03-21T03:41:14.710Z,101008.72
2023-03-21T03:43:48.690Z,101010.50
2023-03-21T03:46:21.985Z,100999.34
2023-03-21T03:48:55.067Z,101009.22
2023-03-21T03:51:29.019Z,101010.28
2023-03-21T03:54:00.737Z,101011.19
2023-03-21T03:56:33.094Z,101006.94
2023-03-21T03:59:04.920Z,101005.19
2023-03-21T04:01:34.309Z,101006.06
2023-03-21T04:04:13.053Z,101006.06
2023-03-21T04:06:43.647Z,101004.47
2023-03-21T04:09:21.054Z,101001.13
2023-03-21T04:11:57.386Z,101002.09
2023-03-21T04:14:35.519Z,100996.97
2023-03-21T04:17:08.233Z,101002.03
2023-03-21T04:19:37.959Z,101001.13
2023-03-21T04:22:07.679Z,100998.16
2023-03-21T04:24:37.575Z,101001.41
2023-03-21T04:27:09.747Z,100996.28
2023-03-21T04:29:39.393Z,100992.84
2023-03-21T04:32:17.605Z,100995.91
2023-03-21T04:34:50.324Z,100990.69
2023-03-21T04:37:20.264Z,100993.13
2023-03-21T04:39:50.351Z,100985.56
2023-03-21T04:42:22.524Z,100993.25
2023-03-21T04:44:52.255Z,100988.13
2023-03-21T04:47:22.504Z,100987.44
2023-03-21T04:49:53.637Z,100989.19
2023-03-21T04:52:25.260Z,100984.19
2023-03-21T04:54:54.851Z,100986.75
2023-03-21T04:57:27.078Z,100993.41
2023-03-21T04:59:56.577Z,100986.91
2023-03-21T05:02:26.054Z,100987.28
2023-03-21T05:04:57.504Z,100996.47
2023-03-21T05:07:27.186Z,100992.03
2023-03-21T05:09:56.660Z,100998.06
2023-03-21T05:12:28.758Z,100994.00
2023-03-21T05:14:58.136Z,101004.97
2023-03-21T05:17:28.514Z,101000.09
2023-03-21T05:19:58.923Z,101000.22
2023-03-21T05:22:29.352Z,101004.25
2023-03-21T05:24:58.891Z,100999.31
2023-03-21T05:27:36.969Z,101003.66
2023-03-21T05:30:08.949Z,101005.34
2023-03-21T05:32:38.445Z,101005.34
2023-03-21T05:35:09.253Z,101008.19
2023-03-21T05:37:38.992Z,101002.88
2023-03-21T05:40:10.362Z,101000.22
2023-03-21T05:42:42.636Z,101002.25
2023-03-21T05:45:12.979Z,101000.38
2023-03-21T05:47:42.470Z,100998.84
2023-03-21T05:50:14.166Z,100993.69
2023-03-21T05:52:43.656Z,100990.44
2023-03-21T05:55:13.166Z,100988.97
2023-03-21T05:57:45.187Z,100983.31
2023-03-21T06:00:15.931Z,100986.06
2023-03-21T06:02:45.788Z,100985.28
2023-03-21T06:05:15.505Z,100990.41
2023-03-21T06:07:44.959Z,100992.72
2023-03-21T06:10:14.775Z,100989.19
2023-03-21T06:12:46.980Z,100987.22
2023-03-21T06:15:16.710Z,100990.38
2023-03-21T06:17:46.084Z,100986.63
2023-03-21T06:20:15.847Z,100979.47
2023-03-21T06:22:45.417Z,100982.78
2023-03-21T06:25:14.984Z,100982.09
2023-03-21T06:27:47.004Z,100977.66
2023-03-21T06:30:18.035Z,100985.88
2023-03-21T06:32:47.515Z,100983.91
2023-03-21T06:35:17.020Z,100981.34
2023-03-21T06:37:49.400Z,100988.53
2023-03-21T06:40:19.743Z,100985.53
2023-03-21T06:42:51.785Z,100981.13
2023-03-21T06:45:21.411Z,100984.38
2023-03-21T06:47:51.136Z,100983.09
2023-03-21T06:50:20.802Z,100988.72
2023-03-21T06:52:51.160Z,100996.03
2023-03-21T06:55:26.120Z,101001.69
2023-03-21T06:57:58.964Z,100999.28
2023-03-21T07:00:29.571Z,101002.88
2023-03-21T07:02:59.011Z,101005.50
2023-03-21T07:05:28.540Z,101002.56
2023-03-21T07:07:58.220Z,101008.16
2023-03-21T07:10:27.643Z,101002.94
2023-03-21T07:13:01.415Z,101005.88
2023-03-21T07:15:30.938Z,101007.56
2023-03-21T07:18:00.346Z,101011.72
2023-03-21T07:20:29.908Z,101004.09
2023-03-21T07:22:59.695Z,101008.81
2023-03-21T07:25:29.303Z,101000.72
2023-03-21T07:28:01.782Z,100994.41
2023-03-21T07:30:31.400Z,101002.81
2023-03-21T07:33:00.961Z,101003.66
2023-03-21T07:35:30.416Z,101001.81
2023-03-21T07:37:59.787Z,101000.13
2023-03-21T07:40:29.186Z,100996.78
2023-03-21T07:45:50.557Z,101005.75
2023-03-21T07:48:20.710Z,100999.53
2023-03-21T07:50:51.927Z,101001.31
2023-03-21T07:53:21.516Z,100999.28
2023-03-21T07:55:53.231Z,100997.50
2023-03-21T07:58:25.679Z,101005.09
2023-03-21T08:00:56.527Z,101003.28
2023-03-21T08:03:29.292Z,101003.34
2023-03-21T08:05:58.804Z,101001.06
2023-03-21T08:08:28.220Z,101004.72
2023-03-21T08:10:57.913Z,101001.94
2023-03-21T08:13:29.901Z,100995.31
2023-03-21T08:15:59.401Z,100993.09
2023-03-21T08:18:29.383Z,100994.59
2023-03-21T08:21:00.262Z,100993.75
2023-03-21T08:23:29.782Z,100985.50
2023-03-21T08:25:59.543Z,100988.16
2023-03-21T08:28:31.613Z,100988.16
2023-03-21T08:31:01.114Z,100985.41
2023-03-21T08:33:30.618Z,100989.28
2023-03-21T08:36:02.001Z,100991.09
2023-03-21T08:38:33.632Z,100992.59
2023-03-21T08:41:03.196Z,101004.53
2023-03-21T08:43:35.173Z,101002.22
2023-03-21T08:46:05.017Z,100998.78
2023-03-21T08:48:34.434Z,101004.69
2023-03-21T08:51:03.943Z,101002.22
2023-03-21T08:53:33.637Z,101004.91
2023-03-21T08:56:03.078Z,101010.03
2023-03-21T08:58:35.043Z,101002.59
2023-03-21T09:01:04.474Z,101002.94
2023-03-21T09:03:33.875Z,100991.97
2023-03-21T09:06:03.368Z,100993.03
2023-03-21T09:08:32.834Z,100984.28
2023-03-21T09:11:02.290Z,100978.88
2023-03-21T09:13:31.775Z,100975.25
2023-03-21T09:16:05.315Z,100971.06
2023-03-21T09:18:45.505Z,100973.84
2023-03-21T09:21:15.669Z,100983.31
2023-03-21T09:23:46.253Z,100978.44
2023-03-21T09:26:16.271Z,100980.91
2023-03-21T09:28:49.197Z,100989.75
2023-03-21T09:31:21.691Z,100984.47
2023-03-21T09:33:51.845Z,100986.69
2023-03-21T09:36:27.271Z,100990.03
2023-03-21T09:38:57.232Z,100994.19
2023-03-21T09:41:38.018Z,100997.03
2023-03-21T09:44:17.825Z,101003.16
2023-03-21T09:46:53.888Z,101006.44
2023-03-21T09:49:31.044Z,101013.78
2023-03-21T09:52:05.524Z,101014.19
2023-03-21T09:54:39.439Z,101024.75
2023-03-21T09:57:19.656Z,101018.47
2023-03-21T09:59:53.766Z,101031.31
2023-03-21T10:02:38.255Z,101032.72
2023-03-21T10:05:15.501Z,101031.47
2023-03-21T10:07:50.187Z,101024.75
2023-03-21T10:10:22.688Z,101032.47
2023-03-21T10:12:53.422Z,101027.47
2023-03-21T10:15:25.317Z,101019.22
2023-03-21T10:18:01.393Z,101009.69
2023-03-21T10:20:33.990Z,101008.25
2023-03-21T10:23:06.741Z,100998.31
2023-03-21T10:25:39.200Z,100989.47
2023-03-21T10:28:10.696Z,100996.03
2023-03-21T10:30:43.073Z,100982.53
2023-03-21T10:33:20.557Z,100981.22
2023-03-21T10:35:57.561Z,100975.28
2023-03-21T10:38:28.189Z,100965.88
2023-03-21T10:40:58.709Z,100969.56
2023-03-21T10:43:37.940Z,100960.09
2023-03-21T10:46:12.456Z,100959.47
2023-03-21T10:48:47.503Z,100946.97
2023-03-21T10:51:21.726Z,100957.88
2023-03-21T10:53:54.808Z,100949.81
2023-03-21T10:56:26.664Z,100952.72
2023-03-21T10:58:58.698Z,100943.50
2023-03-21T11:01:33.798Z,100944.28
2023-03-21T11:04:11.748Z,100939.41
2023-03-21T11:06:42.668Z,100938.16
2023-03-21T11:09:19.508Z,100936.22
2023-03-21T11:11:53.992Z,100933.22
2023-03-21T11:14:31.112Z,100925.06
2023-03-21T11:17:00.715Z,100926.53
2023-03-21T11:19:36.137Z,100928.00
2023-03-21T11:22:09.099Z,100927.03
2023-03-21T11:24:38.884Z,100916.25
2023-03-21T11:27:09.715Z,100920.44
2023-03-21T11:29:42.734Z,100919.31
2023-03-21T11:32:13.835Z,100914.44
2023-03-21T11:34:49.850Z,100913.53
2023-03-21T11:37:23.057Z,100913.88
2023-03-21T11:39:57.789Z,100902.47
2023-03-21T11:42:30.626Z,100900.31
2023-03-21T11:45:06.597Z,100901.50
2023-03-21T11:47:35.990Z,100898.78
2023-03-21T11:50:17.035Z,100895.63
2023-03-21T11:52:51.667Z,100886.16
2023-03-21T11:55:28.039Z,100882.06
2023-03-21T11:58:14.200Z,100895.91
2023-03-21T12:00:47.635Z,100890.44
2023-03-21T12:04:04.472Z,100893.97
2023-03-21T12:06:39.509Z,100884.53
2023-03-21T12:09:38.246Z,100879.84
2023-03-21T12:12:15.735Z,100876.44
2023-03-21T12:14:53.017Z,100868.56
2023-03-21T12:17:31.343Z,100867.94
2023-03-21T12:20:17.230Z,100861.66
2023-03-21T12:23:05.584Z,100867.13
2023-03-21T12:25:38.627Z,100868.91
2023-03-21T12:28:30.133Z,100867.94
2023-03-21T12:31:06.333Z,100882.25
2023-03-21T12:33:56.388Z,100883.97
2023-03-21T12:36:41.993Z,100886.66
2023-03-21T12:39:22.061Z,100898.66
2023-03-21T12:41:59.819Z,100897.06
2023-03-21T12:44:30.912Z,100905.41
2023-03-21T12:47:02.509Z,100910.22
2023-03-21T12:49:35.367Z,100906.78
2023-03-21T12:52:09.027Z,100905.72
2023-03-21T12:54:43.511Z,100906.88
2023-03-21T12:57:17.890Z,100906.78
2023-03-21T12:59:50.417Z,100907.94
2023-03-21T13:02:24.111Z,100898.38
2023-03-21T13:05:01.456Z,100901.19
2023-03-21T13:07:32.263Z,100895.91
2023-03-21T13:10:05.097Z,100897.50
2023-03-21T13:12:47.487Z,100887.38
2023-03-21T13:15:30.041Z,100876.91
2023-03-21T13:18:04.527Z,100864.25
2023-03-21T13:20:39.870Z,100861.81
2023-03-21T13:23:09.903Z,100855.09
2023-03-21T13:25:46.552Z,100849.03
2023-03-21T13:28:22.096Z,100843.19
2023-03-21T13:30:52.750Z,100839.03
2023-03-21T13:33:27.467Z,100841.78
2023-03-21T13:36:00.995Z,100838.03
2023-03-21T13:38:31.725Z,100841.47
2023-03-21T13:41:08.013Z,100841.41
2023-03-21T13:43:43.661Z,100841.41
2023-03-21T13:46:14.186Z,100838.03
2023-03-21T13:48:57.704Z,100834.50
2023-03-21T13:51:46.796Z,100841.41
2023-03-21T13:54:24.134Z,100828.63
2023-03-21T13:57:01.113Z,100831.84
2023-03-21T13:59:43.552Z,100827.94
2023-03-21T14:02:31.478Z,100812.31
2023-03-21T14:05:06.093Z,100808.81
2023-03-21T14:07:38.338Z,100801.25
2023-03-21T14:10:11.447Z,100798.84
2023-03-21T14:12:44.437Z,100792.72
2023-03-21T14:15:20.955Z,100785.81
2023-03-21T14:17:54.532Z,100785.00
2023-03-21T14:20:27.604Z,100786.78
2023-03-21T14:22:57.337Z,100785.81
2023-03-21T14:25:34.063Z,100787.16
2023-03-21T14:28:15.559Z,100781.97
2023-03-21T14:30:45.630Z,100779.44
2023-03-21T14:33:19.662Z,100783.81
2023-03-21T14:35:50.406Z,100780.25
2023-03-21T14:38:24.418Z,100777.13
2023-03-21T14:40:55.746Z,100777.78
2023-03-21T14:43:28.955Z,100768.44
2023-03-21T14:45:59.663Z,100766.75
2023-03-21T14:48:33.521Z,100750.13
2023-03-21T14:51:05.471Z,100748.53
2023-03-21T14:53:36.389Z,100743.53
2023-03-21T14:56:09.511Z,100735.97
2023-03-21T14:58:44.156Z,100723.84
2023-03-21T15:01:18.020Z,100734.78
2023-03-21T15:03:48.671Z,100725.63
2023-03-21T15:06:18.594Z,100722.81
2023-03-21T15:08:57.385Z,100714.44
2023-03-21T15:11:33.297Z,100717.81
2023-03-21T15:14:08.173Z,100716.28
2023-03-21T15:16:39.173Z,100718.50
2023-03-21T15:19:09.674Z,100710.78
2023-03-21T15:21:41.697Z,100712.28
2023-03-21T15:24:15.903Z,100710.78
2023-03-21T15:26:47.487Z,100715.09
2023-03-21T15:29:21.236Z,100712.69
2023-03-21T15:31:51.467Z,100715.09
2023-03-21T15:34:22.992Z,100716.88
2023-03-21T15:36:58.596Z,100725.13
2023-03-21T15:39:30.810Z,100715.75
2023-03-21T15:42:02.701Z,100716.56
2023-03-21T15:44:35.514Z,100701.94
2023-03-21T15:47:05.073Z,100698.69
2023-03-21T15:49:36.306Z,100699.28
2023-03-21T15:52:09.297Z,100688.41
2023-03-21T15:54:45.243Z,100693.56
2023-03-21T15:57:24.701Z,100699.69
2023-03-21T16:00:06.171Z,100707.41
2023-03-21T16:02:35.600Z,100706.66
2023-03-21T16:05:06.758Z,100705.13
2023-03-21T16:07:37.105Z,100709.16
2023-03-21T16:10:08.014Z,100711.66
2023-03-21T16:12:37.431Z,100705.47
2023-03-21T16:15:10.454Z,100710.31
2023-03-21T16:17:41.636Z,100717.94
2023-03-21T16:20:20.268Z,100727.19
2023-03-21T16:22:50.487Z,100728.78
2023-03-21T16:25:20.733Z,100739.66
2023-03-21T16:27:50.822Z,100735.31
2023-03-21T16:30:24.425Z,100736.03
2023-03-21T16:32:54.481Z,100735.06
2023-03-21T16:35:26.124Z,100741.66
2023-03-21T16:37:55.579Z,100737.25
2023-03-21T16:40:29.505Z,100741.03
2023-03-21T16:42:59.022Z,100735.72
2023-03-21T16:45:31.577Z,100743.28
2023-03-21T16:48:01.978Z,100749.00
2023-03-21T16:50:34.319Z,100745.75
2023-03-21T16:53:04.424Z,100757.56
2023-03-21T16:55:34.871Z,100749.94
2023-03-21T16:58:04.657Z,100750.56
2023-03-21T17:00:37.578Z,100754.13
2023-03-21T17:03:19.664Z,100752.50
2023-03-21T17:05:49.183Z,100763.38
2023-03-21T17:08:20.880Z,100767.84
2023-03-21T17:10:50.519Z,100770.41
2023-03-21T17:13:19.933Z,100785.50
2023-03-21T17:15:51.980Z,100783.75
2023-03-21T17:18:21.349Z,100775.09
2023-03-21T17:20:50.769Z,100782.53
2023-03-21T17:23:20.438Z,100794.41
2023-03-21T17:25:49.896Z,100784.38
2023-03-21T17:28:19.310Z,100785.19
2023-03-21T17:30:48.894Z,100774.41
2023-03-21T17:33:20.947Z,100780.22
2023-03-21T17:35:50.455Z,100782.59
2023-03-21T17:38:20.446Z,100782.59
2023-03-21T17:40:50.591Z,100783.75
2023-03-21T17:43:23.374Z,100782.69
2023-03-21T17:45:55.517Z,100775.22
2023-03-21T17:48:27.772Z,100773.56
2023-03-21T17:50:57.268Z,100780.53
2023-03-21T17:53:26.844Z,100772.84
2023-03-21T17:55:56.240Z,100769.59
2023-03-21T17:58:26.246Z,100775.56
2023-03-21T18:00:55.840Z,100776.28
2023-03-21T18:03:27.854Z,100770.41
2023-03-21T18:05:57.286Z,100777.16
2023-03-21T18:08:26.913Z,100760.84
2023-03-21T18:10:56.312Z,100757.41
2023-03-21T18:13:25.685Z,100752.59
2023-03-21T18:15:56.361Z,100749.84
2023-03-21T18:18:28.934Z,100754.84
2023-03-21T18:20:59.015Z,100736.06
2023-03-21T18:23:28.866Z,100745.44
2023-03-21T18:25:58.569Z,100737.00
2023-03-21T18:28:28.044Z,100736.06
2023-03-21T18:31:10.637Z,100724.16
2023-03-21T18:33:45.270Z,100726.09
2023-03-21T18:36:16.416Z,100716.13
2023-03-21T18:38:46.062Z,100712.75
2023-03-21T18:41:18.429Z,100709.22
2023-03-21T18:44:15.036Z,100709.94
2023-03-21T18:46:38.035Z,100701.56
2023-03-21T18:49:51.873Z,100696.22
2023-03-21T18:51:59.941Z,100700.53
2023-03-21T18:54:30.241Z,100698.78
2023-03-21T18:59:49.446Z,100696.84
2023-03-21T19:02:18.924Z,100698.47
2023-03-21T19:04:51.258Z,100690.94
2023-03-21T19:07:20.911Z,100686.56
2023-03-21T19:10:13.811Z,100697.03
2023-03-21T19:12:41.540Z,100685.84
2023-03-21T19:15:11.712Z,100690.97
2023-03-21T19:20:33.892Z,100681.00
2023-03-21T19:23:03.448Z,100679.16
2023-03-21T19:25:32.910Z,100675.81
2023-03-21T19:28:03.812Z,100672.44
2023-03-21T19:30:34.163Z,100670.00
2023-03-21T19:33:03.738Z,100664.94
2023-03-21T19:35:37.668Z,100658.88
2023-03-21T19:38:07.162Z,100658.13
2023-03-21T19:40:37.202Z,100653.78
2023-03-21T19:43:31.282Z,100646.06
2023-03-21T19:45:57.350Z,100646.38
2023-03-21T19:51:33.178Z,100602.38
2023-03-21T19:54:03.605Z,100613.63
2023-03-21T19:56:34.491Z,100612.97
2023-03-21T19:59:04.420Z,100609.34
2023-03-21T20:01:34.765Z,100611.19
2023-03-21T20:04:05.176Z,100613.84
2023-03-21T20:06:38.722Z,100611.38
2023-03-21T20:12:00.846Z,100612.19
2023-03-21T20:14:30.481Z,100608.19
2023-03-21T20:16:59.976Z,100609.09
2023-03-21T20:19:29.432Z,100607.34
2023-03-21T20:22:02.802Z,100608.94
2023-03-21T20:24:32.822Z,100602.34
2023-03-21T20:27:04.621Z,100607.34
2023-03-21T20:30:08.819Z,100602.19
2023-03-21T20:32:23.909Z,100616.72
2023-03-21T20:35:01.985Z,100611.44
2023-03-21T20:41:06.419Z,100583.09
2023-03-21T20:46:22.903Z,100580.94
2023-03-21T20:48:51.064Z,100591.22
2023-03-21T20:54:08.105Z,100592.34
2023-03-21T20:56:40.548Z,100601.97
2023-03-21T20:59:18.195Z,100599.41
2023-03-21T21:01:54.546Z,100590.72
2023-03-21T21:04:42.855Z,100597.69
2023-03-21T21:07:16.151Z,100607.16
2023-03-21T21:09:45.724Z,100609.81
2023-03-21T21:12:19.359Z,100615.69
2023-03-21T21:14:49.384Z,100624.38
2023-03-21T21:17:40.363Z,100631.13
2023-03-21T21:20:21.387Z,100636.44
2023-03-21T21:22:59.719Z,100647.53
2023-03-21T21:25:30.550Z,100644.88
2023-03-21T21:28:03.420Z,100650.09
2023-03-21T21:30:34.085Z,100652.00
2023-03-21T21:33:04.561Z,100661.41
2023-03-21T21:35:34.465Z,100662.41
2023-03-21T21:38:04.032Z,100661.56
2023-03-21T21:40:33.459Z,100665.84
2023-03-21T21:43:05.990Z,100665.66
2023-03-21T21:45:36.512Z,100672.56
2023-03-21T21:48:06.045Z,100677.66
2023-03-21T21:50:35.821Z,100687.94
2023-03-21T21:53:06.368Z,100682.78
2023-03-21T21:55:36.439Z,100676.69
2023-03-21T21:58:08.568Z,100688.72
2023-03-21T22:00:38.604Z,100686.09
2023-03-21T22:03:09.296Z,100687.78
2023-03-21T22:05:38.800Z,100685.19
2023-03-21T22:08:10.522Z,100687.03
2023-03-21T22:10:40.587Z,100684.31
2023-03-21T22:13:12.780Z,100693.72
2023-03-21T22:15:42.288Z,100688.41
2023-03-21T22:18:12.989Z,100682.50
2023-03-21T22:20:42.407Z,100676.38
2023-03-21T22:23:11.809Z,100683.28
2023-03-21T22:25:41.367Z,100680.56
2023-03-21T22:28:13.318Z,100673.72
2023-03-21T22:30:42.977Z,100678.81
2023-03-21T22:33:12.388Z,100670.94
2023-03-21T22:35:41.812Z,100663.13
2023-03-21T22:38:12.340Z,100667.25
2023-03-21T22:40:42.137Z,100655.19
2023-03-21T22:43:14.407Z,100655.19
2023-03-21T22:45:43.878Z,100658.59
2023-03-21T22:48:15.632Z,100649.03
2023-03-21T22:50:45.576Z,100648.81
2023-03-21T22:53:15.535Z,100642.78
2023-03-21T22:55:44.969Z,100646.81
2023-03-21T22:58:17.029Z,100639.91
2023-03-21T23:00:47.255Z,100638.06
2023-03-21T23:03:17.289Z,100638.72
2023-03-21T23:05:47.703Z,100642.31
2023-03-21T23:08:17.111Z,100645.44
2023-03-21T23:10:47.682Z,100644.09
2023-03-21T23:13:19.643Z,100642.44
2023-03-21T23:15:49.111Z,100639.72
2023-03-21T23:18:18.589Z,100632.75
2023-03-21T23:20:51.451Z,100630.00
2023-03-21T23:23:20.880Z,100634.75
2023-03-21T23:25:50.252Z,100627.94
2023-03-21T23:28:22.217Z,100624.16
2023-03-21T23:30:51.714Z,100618.88
2023-03-21T23:33:21.167Z,100616.31
2023-03-21T23:35:50.689Z,100626.41
2023-03-21T23:38:20.250Z,100606.63
2023-03-21T23:40:49.665Z,100609.41
2023-03-21T23:43:19.345Z,100609.97
2023-03-21T23:45:52.108Z,100617.44
2023-03-21T23:48:21.662Z,100608.91
2023-03-21T23:50:51.207Z,100610.44
2023-03-21T23:53:20.677Z,100607.88
2023-03-21T23:55:52.096Z,100601.88
2023-03-21T23:58:23.247Z,100606.31
